createdAt,value
2022-10-15T00:00:08.228Z,2.35
2022-10-15T00:02:35.275Z,1.70
2022-10-15T00:05:01.995Z,2.65
2022-10-15T00:07:29.135Z,2.47
2022-10-15T00:09:56.628Z,3.00
2022-10-15T00:12:23.096Z,2.65
2022-10-15T00:14:49.582Z,2.33
2022-10-15T00:17:16.035Z,3.07
2022-10-15T00:19:42.464Z,2.67
2022-10-15T00:22:08.950Z,2.45
2022-10-15T00:24:36.770Z,2.47
2022-10-15T00:27:03.543Z,2.67
2022-10-15T00:29:29.966Z,3.13
2022-10-15T00:31:56.650Z,3.22
2022-10-15T00:34:23.171Z,3.10
2022-10-15T00:36:50.641Z,2.97
2022-10-15T00:39:19.858Z,2.63
2022-10-15T00:41:47.082Z,2.70
2022-10-15T00:44:26.709Z,3.20
2022-10-15T00:47:04.318Z,2.72
2022-10-15T00:49:34.727Z,3.25
2022-10-15T00:52:04.264Z,2.28
2022-10-15T00:54:34.308Z,2.87
2022-10-15T00:57:01.074Z,2.70
2022-10-15T00:59:28.523Z,3.08
2022-10-15T01:01:55.472Z,3.53
2022-10-15T01:04:23.059Z,2.75
2022-10-15T01:06:49.869Z,3.30
2022-10-15T01:09:16.538Z,3.83
2022-10-15T01:11:49.016Z,3.80
2022-10-15T01:14:22.760Z,3.47
2022-10-15T01:16:53.598Z,3.28
2022-10-15T01:19:32.910Z,3.55
2022-10-15T01:22:10.753Z,4.13
2022-10-15T01:24:50.739Z,3.03
2022-10-15T01:27:18.951Z,3.20
2022-10-15T01:30:14.581Z,3.60
2022-10-15T01:33:05.139Z,4.00
2022-10-15T01:35:46.447Z,2.90
2022-10-15T01:38:25.260Z,4.28
2022-10-15T01:40:56.611Z,3.92
2022-10-15T01:43:28.967Z,4.05
2022-10-15T01:45:58.925Z,2.97
2022-10-15T01:48:27.808Z,3.97
2022-10-15T01:50:57.598Z,2.88
2022-10-15T01:53:26.792Z,3.17
2022-10-15T01:56:06.631Z,4.30
2022-10-15T01:58:35.523Z,3.75
2022-10-15T02:01:02.044Z,3.03
2022-10-15T02:03:28.595Z,3.92
2022-10-15T02:06:04.411Z,4.18
2022-10-15T02:08:34.007Z,4.10
2022-10-15T02:11:07.727Z,3.88
2022-10-15T02:14:00.901Z,3.53
2022-10-15T02:17:10.104Z,3.85
2022-10-15T02:19:43.581Z,2.92
2022-10-15T02:22:24.093Z,4.15
2022-10-15T02:24:58.197Z,3.88
2022-10-15T02:27:26.735Z,3.70
2022-10-15T02:29:53.513Z,3.90
2022-10-15T02:32:21.977Z,3.25
2022-10-15T02:34:49.632Z,5.20
2022-10-15T02:37:17.569Z,3.47
2022-10-15T02:39:44.063Z,4.20
2022-10-15T02:42:10.642Z,2.75
2022-10-15T02:44:37.083Z,4.05
2022-10-15T02:47:03.938Z,3.88
2022-10-15T02:49:30.368Z,3.17
2022-10-15T02:51:57.312Z,4.75
2022-10-15T02:54:23.767Z,3.90
2022-10-15T02:56:50.256Z,4.10
2022-10-15T02:59:18.447Z,4.28
2022-10-15T03:01:44.879Z,5.38
2022-10-15T03:04:12.324Z,3.63
2022-10-15T03:06:38.834Z,4.35
2022-10-15T03:09:05.462Z,4.00
2022-10-15T03:11:31.968Z,3.25
2022-10-15T03:13:58.580Z,3.63
2022-10-15T03:16:25.070Z,2.58
2022-10-15T03:18:51.705Z,3.88
2022-10-15T03:21:18.216Z,3.42
2022-10-15T03:23:44.867Z,3.58
2022-10-15T03:26:11.345Z,3.75
2022-10-15T03:28:37.826Z,2.70
2022-10-15T03:31:04.596Z,3.10
2022-10-15T03:33:31.071Z,3.90
2022-10-15T03:35:57.589Z,4.80
2022-10-15T03:38:24.088Z,4.32
2022-10-15T03:40:50.620Z,3.63
2022-10-15T03:43:17.168Z,3.80
2022-10-15T03:45:43.614Z,4.27
2022-10-15T03:48:10.161Z,4.27
2022-10-15T03:50:36.734Z,3.78
2022-10-15T03:53:04.997Z,2.70
2022-10-15T03:55:32.081Z,4.80
2022-10-15T03:57:58.507Z,5.00
2022-10-15T04:00:25.102Z,4.03
2022-10-15T04:02:51.516Z,4.97
2022-10-15T04:05:18.005Z,5.03
2022-10-15T04:07:44.446Z,2.73
2022-10-15T04:10:11.033Z,4.47
2022-10-15T04:12:37.462Z,4.28
2022-10-15T04:15:05.277Z,3.42
2022-10-15T04:17:31.663Z,4.13
2022-10-15T04:19:58.195Z,3.83
2022-10-15T04:22:25.180Z,3.92
2022-10-15T04:24:51.855Z,3.90
2022-10-15T04:27:18.346Z,4.20
2022-10-15T04:29:47.795Z,4.07
2022-10-15T04:32:17.412Z,3.43
2022-10-15T04:34:45.604Z,4.22
2022-10-15T04:37:12.092Z,4.28
2022-10-15T04:39:38.817Z,4.23
2022-10-15T04:42:05.433Z,3.78
2022-10-15T04:44:31.973Z,2.97
2022-10-15T04:46:58.445Z,4.75
2022-10-15T04:49:24.948Z,4.47
2022-10-15T04:51:51.365Z,4.40
2022-10-15T04:54:17.979Z,3.43
2022-10-15T04:56:44.386Z,3.40
2022-10-15T04:59:10.991Z,4.07
2022-10-15T05:01:37.429Z,4.10
2022-10-15T05:04:04.049Z,4.33
2022-10-15T05:06:32.508Z,4.15
2022-10-15T05:08:58.929Z,2.97
2022-10-15T05:11:27.310Z,3.63
2022-10-15T05:13:57.713Z,3.05
2022-10-15T05:16:26.719Z,3.60
2022-10-15T05:18:56.693Z,3.35
2022-10-15T05:21:23.293Z,4.70
2022-10-15T05:23:50.392Z,4.25
2022-10-15T05:26:19.638Z,3.20
2022-10-15T05:28:46.202Z,3.75
2022-10-15T05:31:18.591Z,4.10
2022-10-15T05:33:46.745Z,3.50
2022-10-15T05:36:18.347Z,3.43
2022-10-15T05:38:50.085Z,3.70
2022-10-15T05:41:16.855Z,3.47
2022-10-15T05:43:45.923Z,4.37
2022-10-15T05:46:12.589Z,3.60
2022-10-15T05:48:39.003Z,3.47
2022-10-15T05:51:07.815Z,3.03
2022-10-15T05:53:34.501Z,3.53
2022-10-15T05:56:01.438Z,3.33
2022-10-15T05:58:32.080Z,4.07
2022-10-15T06:01:04.488Z,4.87
2022-10-15T06:03:31.295Z,3.97
2022-10-15T06:05:57.939Z,3.30
2022-10-15T06:08:24.415Z,3.85
2022-10-15T06:10:51.037Z,2.70
2022-10-15T06:13:17.691Z,3.33
2022-10-15T06:15:45.825Z,3.83
2022-10-15T06:18:15.704Z,4.10
2022-10-15T06:20:43.564Z,4.28
2022-10-15T06:23:11.420Z,3.45
2022-10-15T06:25:38.145Z,3.30
2022-10-15T06:28:05.980Z,2.83
2022-10-15T06:30:32.393Z,3.03
2022-10-15T06:32:58.911Z,2.73
2022-10-15T06:35:26.954Z,3.53
2022-10-15T06:37:53.622Z,4.65
2022-10-15T06:40:20.155Z,2.85
2022-10-15T06:42:46.590Z,3.55
2022-10-15T06:45:15.792Z,2.55
2022-10-15T06:47:44.613Z,3.07
2022-10-15T06:50:12.091Z,3.08
2022-10-15T06:52:39.135Z,3.05
2022-10-15T06:55:06.054Z,3.95
2022-10-15T06:57:32.472Z,4.05
2022-10-15T06:59:58.911Z,3.17
2022-10-15T07:02:25.575Z,3.45
2022-10-15T07:04:52.413Z,3.03
2022-10-15T07:07:18.879Z,3.13
2022-10-15T07:09:46.782Z,3.60
2022-10-15T07:12:13.618Z,2.58
2022-10-15T07:14:42.352Z,4.32
2022-10-15T07:17:09.204Z,3.33
2022-10-15T07:19:35.649Z,3.00
2022-10-15T07:22:02.080Z,3.17
2022-10-15T07:24:28.622Z,4.03
2022-10-15T07:26:54.980Z,3.65
2022-10-15T07:29:21.407Z,2.40
2022-10-15T07:31:47.796Z,2.28
2022-10-15T07:34:14.376Z,1.85
2022-10-15T07:36:41.036Z,2.85
2022-10-15T07:39:08.415Z,3.30
2022-10-15T07:41:34.843Z,1.90
2022-10-15T07:44:01.422Z,2.33
2022-10-15T07:46:28.043Z,3.05
2022-10-15T07:48:54.451Z,2.95
2022-10-15T07:51:20.918Z,2.00
2022-10-15T07:53:47.472Z,2.20
2022-10-15T07:56:15.361Z,2.00
2022-10-15T07:58:42.926Z,2.20
2022-10-15T08:01:10.620Z,2.05
2022-10-15T08:03:37.821Z,2.40
2022-10-15T08:06:06.649Z,2.30
2022-10-15T08:08:34.080Z,2.17
2022-10-15T08:11:14.592Z,1.77
2022-10-15T08:13:43.883Z,2.10
2022-10-15T08:16:12.308Z,1.55
2022-10-15T08:18:39.605Z,2.15
2022-10-15T08:21:07.772Z,1.48
2022-10-15T08:23:34.766Z,1.23
2022-10-15T08:26:02.078Z,1.25
2022-10-15T08:28:29.207Z,1.23
2022-10-15T08:31:02.586Z,1.98
2022-10-15T08:33:31.934Z,1.23
2022-10-15T08:35:58.583Z,1.35
2022-10-15T08:38:25.407Z,1.33
2022-10-15T08:40:53.972Z,1.42
2022-10-15T08:43:41.340Z,1.00
2022-10-15T08:48:49.679Z,0.82
2022-10-15T08:51:21.967Z,1.05
2022-10-15T08:53:55.292Z,1.17
2022-10-15T08:56:28.654Z,1.52
2022-10-15T08:59:23.522Z,1.27
2022-10-15T09:01:57.411Z,1.02
2022-10-15T09:07:07.630Z,0.93
2022-10-15T09:09:47.191Z,1.13
2022-10-15T09:12:43.879Z,1.13
2022-10-15T09:15:13.455Z,0.85
2022-10-15T09:17:41.641Z,0.85
2022-10-15T09:20:16.376Z,0.93
2022-10-15T09:22:42.845Z,1.33
2022-10-15T09:25:18.104Z,1.15
2022-10-15T09:27:47.548Z,1.50
2022-10-15T09:30:28.769Z,1.60
2022-10-15T09:33:00.352Z,1.00
2022-10-15T09:35:53.155Z,0.80
2022-10-15T09:38:35.466Z,1.05
2022-10-15T09:41:17.201Z,1.85
2022-10-15T09:43:49.832Z,1.17
2022-10-15T09:46:16.385Z,0.80
2022-10-15T09:48:50.509Z,0.93
2022-10-15T09:51:40.718Z,0.80
2022-10-15T09:54:49.404Z,0.68
2022-10-15T09:57:17.450Z,0.80
2022-10-15T10:00:01.081Z,0.68
2022-10-15T10:02:29.387Z,1.17
2022-10-15T10:04:56.481Z,1.38
2022-10-15T10:07:34.892Z,1.10
2022-10-15T10:10:07.677Z,0.88
2022-10-15T10:12:35.734Z,1.02
2022-10-15T10:15:09.700Z,1.05
2022-10-15T10:17:36.196Z,0.88
2022-10-15T10:20:16.253Z,0.77
2022-10-15T10:22:49.040Z,1.30
2022-10-15T10:25:27.399Z,1.33
2022-10-15T10:27:55.290Z,0.85
2022-10-15T10:30:22.011Z,1.05
2022-10-15T10:32:48.690Z,1.08
2022-10-15T10:35:23.557Z,1.45
2022-10-15T10:37:50.703Z,0.95
2022-10-15T10:40:34.795Z,1.30
2022-10-15T10:43:38.205Z,1.10
2022-10-15T10:46:17.619Z,1.15
2022-10-15T10:48:49.334Z,1.17
2022-10-15T10:51:20.002Z,1.20
2022-10-15T10:53:57.647Z,0.88
2022-10-15T10:56:37.723Z,1.02
2022-10-15T10:59:15.471Z,0.88
2022-10-15T11:01:42.024Z,1.27
2022-10-15T11:04:15.558Z,1.38
2022-10-15T11:07:09.525Z,1.27
2022-10-15T11:09:45.044Z,1.17
2022-10-15T11:12:22.511Z,1.58
2022-10-15T11:15:24.440Z,0.90
2022-10-15T11:18:08.386Z,1.60
2022-10-15T11:20:58.674Z,1.20
2022-10-15T11:23:41.210Z,1.08
2022-10-15T11:26:37.169Z,1.15
2022-10-15T11:29:32.732Z,1.33
2022-10-15T11:32:18.634Z,1.20
2022-10-15T11:35:08.199Z,1.13
2022-10-15T11:37:49.364Z,1.17
2022-10-15T11:40:22.510Z,1.30
2022-10-15T11:43:00.232Z,0.70
2022-10-15T11:45:39.579Z,1.08
2022-10-15T11:48:11.571Z,1.20
2022-10-15T11:50:57.654Z,1.25
2022-10-15T11:53:49.959Z,0.77
2022-10-15T11:56:36.394Z,1.13
2022-10-15T11:59:25.656Z,0.93
2022-10-15T12:01:59.922Z,0.90
2022-10-15T12:04:43.881Z,1.00
2022-10-15T12:07:23.198Z,0.70
2022-10-15T12:09:57.864Z,0.90
2022-10-15T12:12:46.707Z,0.88
2022-10-15T12:15:32.150Z,0.80
2022-10-15T12:18:17.669Z,0.77
2022-10-15T12:20:45.556Z,2.15
2022-10-15T12:23:36.581Z,0.90
2022-10-15T12:26:26.910Z,1.50
2022-10-15T12:28:59.609Z,0.75
2022-10-15T12:31:49.336Z,1.23
2022-10-15T12:34:29.911Z,0.80
2022-10-15T12:37:05.235Z,0.98
2022-10-15T12:39:52.149Z,0.80
2022-10-15T12:42:38.602Z,1.42
2022-10-15T12:45:08.286Z,0.73
2022-10-15T12:47:54.977Z,1.25
2022-10-15T12:50:26.856Z,1.20
2022-10-15T12:53:24.473Z,1.20
2022-10-15T12:56:15.259Z,1.00
2022-10-15T12:58:43.926Z,0.73
2022-10-15T13:01:13.444Z,0.90
2022-10-15T13:03:52.587Z,1.40
2022-10-15T13:06:22.275Z,1.60
2022-10-15T13:09:09.863Z,1.20
2022-10-15T13:11:56.398Z,0.63
2022-10-15T13:14:39.561Z,0.70
2022-10-15T13:17:17.255Z,0.52
2022-10-15T13:19:58.024Z,0.30
2022-10-15T13:22:29.851Z,0.38
2022-10-15T13:24:56.680Z,0.20
2022-10-15T13:27:26.633Z,0.30
2022-10-15T13:30:06.578Z,0.20
2022-10-15T13:32:40.180Z,0.38
2022-10-15T13:35:12.220Z,0.20
2022-10-15T13:37:40.361Z,0.20
2022-10-15T13:40:08.526Z,0.30
2022-10-15T13:42:35.596Z,0.30
2022-10-15T13:45:13.578Z,0.30
2022-10-15T13:47:42.869Z,0.30
2022-10-15T13:50:23.733Z,0.28
2022-10-15T13:52:57.479Z,0.17
2022-10-15T13:55:28.927Z,0.25
2022-10-15T13:58:14.163Z,0.40
2022-10-15T14:00:40.673Z,0.40
2022-10-15T14:03:08.941Z,0.30
2022-10-15T14:05:35.609Z,0.50
2022-10-15T14:08:02.002Z,0.28
2022-10-15T14:10:28.594Z,0.20
2022-10-15T14:12:55.006Z,0.20
2022-10-15T14:15:48.330Z,0.40
2022-10-15T14:18:16.772Z,0.20
2022-10-15T14:20:45.517Z,0.30
2022-10-15T14:23:24.757Z,0.30
2022-10-15T14:25:56.703Z,0.30
2022-10-15T14:28:24.296Z,0.32
2022-10-15T14:30:51.634Z,0.25
2022-10-15T14:33:30.294Z,0.30
2022-10-15T14:36:24.650Z,0.35
2022-10-15T14:38:53.570Z,0.20
2022-10-15T14:41:28.931Z,0.28
2022-10-15T14:44:11.831Z,0.20
2022-10-15T14:47:01.560Z,0.30
2022-10-15T14:49:31.083Z,0.50
2022-10-15T14:52:10.661Z,0.43
2022-10-15T14:54:41.452Z,0.68
2022-10-15T14:57:23.570Z,0.32
2022-10-15T14:59:52.647Z,0.47
2022-10-15T15:02:19.290Z,0.40
2022-10-15T15:04:53.225Z,0.50
2022-10-15T15:07:20.927Z,0.40
2022-10-15T15:09:48.787Z,0.55
2022-10-15T15:12:19.998Z,0.30
2022-10-15T15:14:48.252Z,0.50
2022-10-15T15:17:17.875Z,0.30
2022-10-15T15:19:44.321Z,0.50
2022-10-15T15:22:12.294Z,0.30
2022-10-15T15:24:38.929Z,0.30
2022-10-15T15:27:05.574Z,0.60
2022-10-15T15:29:31.918Z,0.70
2022-10-15T15:31:58.291Z,0.60
2022-10-15T15:34:24.715Z,0.63
2022-10-15T15:36:51.331Z,0.50
2022-10-15T15:39:17.723Z,0.75
2022-10-15T15:41:44.106Z,1.15
2022-10-15T15:44:13.600Z,0.90
2022-10-15T15:46:40.000Z,0.90
2022-10-15T15:49:06.415Z,0.75
2022-10-15T15:51:32.907Z,0.95
2022-10-15T15:53:59.444Z,0.70
2022-10-15T15:56:25.849Z,1.40
2022-10-15T15:58:52.510Z,1.60
2022-10-15T16:01:19.757Z,0.75
2022-10-15T16:03:46.446Z,0.70
2022-10-15T16:06:13.958Z,0.80
2022-10-15T16:08:40.344Z,0.80
2022-10-15T16:11:06.806Z,0.77
2022-10-15T16:13:33.487Z,1.13
2022-10-15T16:15:59.852Z,1.48
2022-10-15T16:18:26.248Z,1.40
2022-10-15T16:20:52.930Z,1.00
2022-10-15T16:23:19.320Z,0.90
2022-10-15T16:25:45.795Z,0.68
2022-10-15T16:28:12.197Z,1.27
2022-10-15T16:30:38.654Z,0.98
2022-10-15T16:33:09.938Z,2.40
2022-10-15T16:35:36.505Z,1.10
2022-10-15T16:38:02.923Z,0.90
2022-10-15T16:40:29.506Z,1.10
2022-10-15T16:42:55.900Z,0.88
2022-10-15T16:45:22.272Z,0.85
2022-10-15T16:47:49.240Z,0.70
2022-10-15T16:50:15.813Z,1.10
2022-10-15T16:52:42.216Z,0.70
2022-10-15T16:55:08.987Z,0.90
2022-10-15T16:57:35.784Z,0.90
2022-10-15T17:00:02.234Z,1.52
2022-10-15T17:02:28.807Z,0.90
2022-10-15T17:04:55.286Z,0.85
2022-10-15T17:07:21.891Z,0.80
2022-10-15T17:12:19.684Z,1.40
2022-10-15T17:14:50.737Z,0.85
2022-10-15T17:17:17.252Z,0.95
2022-10-15T17:19:43.616Z,1.02
2022-10-15T17:22:09.982Z,0.98
2022-10-15T17:24:36.388Z,0.93
2022-10-15T17:27:07.158Z,1.20
2022-10-15T17:29:33.976Z,1.50
2022-10-15T17:32:01.012Z,2.35
2022-10-15T17:34:28.034Z,1.70
2022-10-15T17:36:55.985Z,1.10
2022-10-15T17:39:22.581Z,1.73
2022-10-15T17:41:50.288Z,1.50
2022-10-15T17:44:16.691Z,1.73
2022-10-15T17:46:43.117Z,1.42
2022-10-15T17:49:11.095Z,1.92
2022-10-15T17:51:37.573Z,1.65
2022-10-15T17:54:05.455Z,1.42
2022-10-15T17:56:35.794Z,1.33
2022-10-15T17:59:05.015Z,1.80
2022-10-15T18:01:57.365Z,1.30
2022-10-15T18:04:25.287Z,2.75
2022-10-15T18:06:52.143Z,2.55
2022-10-15T18:09:18.795Z,1.70
2022-10-15T18:11:48.260Z,3.35
2022-10-15T18:14:14.935Z,2.22
2022-10-15T18:16:41.324Z,2.72
2022-10-15T18:19:08.026Z,2.05
2022-10-15T18:21:35.018Z,3.05
2022-10-15T18:24:01.530Z,4.20
2022-10-15T18:26:27.998Z,4.00
2022-10-15T18:28:54.717Z,4.35
2022-10-15T18:31:22.249Z,4.05
2022-10-15T18:33:51.941Z,3.13
2022-10-15T18:36:29.026Z,4.70
2022-10-15T18:38:56.068Z,3.83
2022-10-15T18:41:30.671Z,4.30
2022-10-15T18:44:02.527Z,4.28
2022-10-15T18:46:29.568Z,4.68
2022-10-15T18:48:56.048Z,4.57
2022-10-15T18:51:25.166Z,4.00
2022-10-15T18:53:52.136Z,4.22
2022-10-15T18:56:19.828Z,4.82
2022-10-15T18:58:46.659Z,5.63
2022-10-15T19:01:33.701Z,5.60
2022-10-15T19:04:03.038Z,5.35
2022-10-15T19:06:32.149Z,4.60
2022-10-15T19:09:02.839Z,3.80
2022-10-15T19:11:29.477Z,3.75
2022-10-15T19:13:57.108Z,4.53
2022-10-15T19:16:23.744Z,4.78
2022-10-15T19:18:50.321Z,4.25
2022-10-15T19:21:16.923Z,4.72
2022-10-15T19:23:43.343Z,4.22
2022-10-15T19:26:11.007Z,4.60
2022-10-15T19:28:41.637Z,4.38
2022-10-15T19:31:09.965Z,4.53
2022-10-15T19:33:37.712Z,3.85
2022-10-15T19:36:04.733Z,5.85
2022-10-15T19:38:31.234Z,4.63
2022-10-15T19:41:02.566Z,5.30
2022-10-15T19:43:28.951Z,4.78
2022-10-15T19:45:55.371Z,5.32
2022-10-15T19:48:22.971Z,5.93
2022-10-15T19:50:49.550Z,4.70
2022-10-15T19:53:17.035Z,4.93
2022-10-15T19:55:55.817Z,5.80
2022-10-15T19:58:22.750Z,4.82
2022-10-15T20:00:50.018Z,4.90
2022-10-15T20:03:16.465Z,4.53
2022-10-15T20:05:44.040Z,4.63
2022-10-15T20:08:11.305Z,4.38
2022-10-15T20:10:44.747Z,4.82
2022-10-15T20:13:12.026Z,4.80
2022-10-15T20:15:42.835Z,4.70
2022-10-15T20:18:09.526Z,4.45
2022-10-15T20:20:40.280Z,4.32
2022-10-15T20:23:06.999Z,5.00
2022-10-15T20:25:33.580Z,5.10
2022-10-15T20:28:00.045Z,5.10
2022-10-15T20:30:27.651Z,4.53
2022-10-15T20:32:54.108Z,4.13
2022-10-15T20:35:20.741Z,4.15
2022-10-15T20:37:47.504Z,4.85
2022-10-15T20:40:14.178Z,5.18
2022-10-15T20:42:41.237Z,4.85
2022-10-15T20:45:11.272Z,4.72
2022-10-15T20:47:41.260Z,5.40
2022-10-15T20:50:13.926Z,4.95
2022-10-15T20:52:41.642Z,4.85
2022-10-15T20:55:09.548Z,4.50
2022-10-15T20:57:36.546Z,5.55
2022-10-15T21:00:05.702Z,5.55
2022-10-15T21:02:32.156Z,4.65
2022-10-15T21:04:58.633Z,5.05
2022-10-15T21:07:25.081Z,5.75
2022-10-15T21:09:51.857Z,5.35
2022-10-15T21:12:18.590Z,5.78
2022-10-15T21:14:45.459Z,5.60
2022-10-15T21:17:12.418Z,5.65
2022-10-15T21:19:38.819Z,5.03
2022-10-15T21:22:05.342Z,5.55
2022-10-15T21:24:34.460Z,5.55
2022-10-15T21:27:01.500Z,5.32
2022-10-15T21:29:28.217Z,6.07
2022-10-15T21:31:54.994Z,5.93
2022-10-15T21:34:23.008Z,6.72
2022-10-15T21:36:49.458Z,5.80
2022-10-15T21:39:16.297Z,4.75
2022-10-15T21:41:42.809Z,5.22
2022-10-15T21:44:09.212Z,5.55
2022-10-15T21:46:35.936Z,5.88
2022-10-15T21:49:03.446Z,5.07
2022-10-15T21:51:31.921Z,6.47
2022-10-15T21:53:58.787Z,5.43
2022-10-15T21:56:25.496Z,5.28
2022-10-15T21:58:52.318Z,5.40
2022-10-15T22:01:31.160Z,5.28
2022-10-15T22:04:00.460Z,4.95
2022-10-15T22:06:27.382Z,4.85
2022-10-15T22:08:54.067Z,5.25
2022-10-15T22:11:24.037Z,5.15
2022-10-15T22:13:55.316Z,5.25
2022-10-15T22:16:22.968Z,5.00
2022-10-15T22:18:49.451Z,5.38
2022-10-15T22:21:22.062Z,5.20
2022-10-15T22:24:18.286Z,4.97
2022-10-15T22:26:47.484Z,5.40
2022-10-15T22:29:20.078Z,4.32
2022-10-15T22:31:46.679Z,4.80
2022-10-15T22:34:13.343Z,5.38
2022-10-15T22:36:39.967Z,4.53
2022-10-15T22:39:07.637Z,5.18
2022-10-15T22:41:36.832Z,5.15
2022-10-15T22:44:03.429Z,4.93
2022-10-15T22:46:37.465Z,4.55
2022-10-15T22:49:05.117Z,4.70
2022-10-15T22:51:32.061Z,5.10
2022-10-15T22:54:00.002Z,4.30
2022-10-15T22:56:28.945Z,4.22
2022-10-15T22:58:56.925Z,4.22
2022-10-15T23:01:28.947Z,4.30
2022-10-15T23:03:57.891Z,4.97
2022-10-15T23:06:25.784Z,5.82
2022-10-15T23:08:52.264Z,4.50
2022-10-15T23:11:30.957Z,5.05
2022-10-15T23:14:05.467Z,4.70
2022-10-15T23:16:38.046Z,4.78
2022-10-15T23:19:14.201Z,4.78
2022-10-15T23:21:44.556Z,5.80
2022-10-15T23:24:12.358Z,4.60
2022-10-15T23:26:40.303Z,5.30
2022-10-15T23:29:11.074Z,4.72
2022-10-15T23:31:37.713Z,3.90
2022-10-15T23:34:05.477Z,3.58
2022-10-15T23:36:34.099Z,4.43
2022-10-15T23:39:03.744Z,4.00
2022-10-15T23:41:30.980Z,5.13
2022-10-15T23:43:57.746Z,5.00
2022-10-15T23:46:24.334Z,4.38
2022-10-15T23:48:50.764Z,4.38
2022-10-15T23:51:28.801Z,4.80
2022-10-15T23:53:56.914Z,4.00
2022-10-15T23:56:23.903Z,5.28
2022-10-15T23:58:51.795Z,4.55
